sensor_id;sensor_type;location;lat;lon;timestamp;temperature;humidity
40816;DHT22;26535;48.788;9.214;2023-06-22T05:02:11;21.30;99.90
40816;DHT22;26535;48.788;9.214;2023-06-22T05:04:37;21.40;99.90
40816;DHT22;26535;48.788;9.214;2023-06-22T05:07:04;21.50;99.90
40816;DHT22;26535;48.788;9.214;2023-06-22T05:09:30;21.60;99.90
40816;DHT22;26535;48.788;9.214;2023-06-22T05:11:56;21.70;99.90
40816;DHT22;26535;48.788;9.214;2023-06-22T05:14:22;21.90;99.90
40816;DHT22;26535;48.788;9.214;2023-06-22T05:16:48;21.90;99.90
40816;DHT22;26535;48.788;9.214;2023-06-22T05:19:14;22.00;99.90
40816;DHT22;26535;48.788;9.214;2023-06-22T05:21:40;22.20;99.90
40816;DHT22;26535;48.788;9.214;2023-06-22T05:24:06;22.30;99.90
40816;DHT22;26535;48.788;9.214;2023-06-22T05:26:33;22.40;99.90
40816;DHT22;26535;48.788;9.214;2023-06-22T05:29:00;22.50;99.90
40816;DHT22;26535;48.788;9.214;2023-06-22T05:31:26;22.60;99.90
40816;DHT22;26535;48.788;9.214;2023-06-22T05:33:54;22.70;99.90
40816;DHT22;26535;48.788;9.214;2023-06-22T05:36:20;22.90;99.90
40816;DHT22;26535;48.788;9.214;2023-06-22T05:38:47;22.90;99.90
40816;DHT22;26535;48.788;9.214;2023-06-22T05:41:13;23.10;99.90
40816;DHT22;26535;48.788;9.214;2023-06-22T05:43:39;23.10;99.90
40816;DHT22;26535;48.788;9.214;2023-06-22T05:46:05;23.20;99.90
40816;DHT22;26535;48.788;9.214;2023-06-22T05:48:31;23.20;99.90
40816;DHT22;26535;48.788;9.214;2023-06-22T05:50:57;23.10;99.90
40816;DHT22;26535;48.788;9.214;2023-06-22T05:53:22;23.00;99.90
40816;DHT22;26535;48.788;9.214;2023-06-22T05:55:48;23.10;99.90
40816;DHT22;26535;48.788;9.214;2023-06-22T05:58:14;23.20;99.90
40816;DHT22;26535;48.788;9.214;2023-06-22T06:00:40;23.30;99.90
40816;DHT22;26535;48.788;9.214;2023-06-22T06:03:07;23.30;99.90
40816;DHT22;26535;48.788;9.214;2023-06-22T06:05:33;23.40;99.90
40816;DHT22;26535;48.788;9.214;2023-06-22T06:08:00;23.40;99.90
40816;DHT22;26535;48.788;9.214;2023-06-22T06:10:27;23.30;99.90
40816;DHT22;26535;48.788;9.214;2023-06-22T06:12:55;23.30;99.90
40816;DHT22;26535;48.788;9.214;2023-06-22T06:15:21;23.30;99.90
40816;DHT22;26535;48.788;9.214;2023-06-22T06:17:55;23.30;99.90
40816;DHT22;26535;48.788;9.214;2023-06-22T06:20:23;23.40;99.90
40816;DHT22;26535;48.788;9.214;2023-06-22T06:22:50;23.30;99.90
40816;DHT22;26535;48.788;9.214;2023-06-22T06:25:16;23.50;99.90
40816;DHT22;26535;48.788;9.214;2023-06-22T06:27:50;23.50;99.90
40816;DHT22;26535;48.788;9.214;2023-06-22T06:30:18;23.60;99.90
40816;DHT22;26535;48.788;9.214;2023-06-22T06:32:45;23.80;99.90
40816;DHT22;26535;48.788;9.214;2023-06-22T06:35:12;23.90;99.90
40816;DHT22;26535;48.788;9.214;2023-06-22T06:37:41;24.10;99.90
40816;DHT22;26535;48.788;9.214;2023-06-22T06:40:08;24.30;99.90
40816;DHT22;26535;48.788;9.214;2023-06-22T06:42:41;24.30;99.90
40816;DHT22;26535;48.788;9.214;2023-06-22T06:45:08;24.40;99.90
40816;DHT22;26535;48.788;9.214;2023-06-22T06:47:34;24.60;99.90
40816;DHT22;26535;48.788;9.214;2023-06-22T06:49:59;24.70;99.90
40816;DHT22;26535;48.788;9.214;2023-06-22T06:52:25;24.70;99.90
40816;DHT22;26535;48.788;9.214;2023-06-22T06:54:52;24.70;99.90
40816;DHT22;26535;48.788;9.214;2023-06-22T06:57:20;24.90;99.90
40816;DHT22;26535;48.788;9.214;2023-06-22T06:59:46;24.90;99.90
40816;DHT22;26535;48.788;9.214;2023-06-22T07:02:12;25.10;99.90
40816;DHT22;26535;48.788;9.214;2023-06-22T07:04:37;25.00;99.90
40816;DHT22;26535;48.788;9.214;2023-06-22T07:07:03;25.10;99.90
40816;DHT22;26535;48.788;9.214;2023-06-22T07:09:29;25.30;99.90
40816;DHT22;26535;48.788;9.214;2023-06-22T07:11:55;25.30;99.90
40816;DHT22;26535;48.788;9.214;2023-06-22T07:14:20;25.50;99.90
40816;DHT22;26535;48.788;9.214;2023-06-22T07:16:46;25.50;99.90
40816;DHT22;26535;48.788;9.214;2023-06-22T07:19:12;25.70;99.90
40816;DHT22;26535;48.788;9.214;2023-06-22T07:21:39;25.70;99.90
40816;DHT22;26535;48.788;9.214;2023-06-22T07:24:07;25.90;99.90
40816;DHT22;26535;48.788;9.214;2023-06-22T07:26:33;25.90;99.90
40816;DHT22;26535;48.788;9.214;2023-06-22T07:28:59;26.00;99.90
40816;DHT22;26535;48.788;9.214;2023-06-22T07:31:26;26.20;99.90
40816;DHT22;26535;48.788;9.214;2023-06-22T07:33:51;26.30;99.90
40816;DHT22;26535;48.788;9.214;2023-06-22T07:36:18;26.30;99.90
40816;DHT22;26535;48.788;9.214;2023-06-22T07:38:43;26.50;99.90
40816;DHT22;26535;48.788;9.214;2023-06-22T07:41:09;26.50;99.90
40816;DHT22;26535;48.788;9.214;2023-06-22T07:43:35;26.40;99.90
40816;DHT22;26535;48.788;9.214;2023-06-22T07:46:05;26.70;99.90
40816;DHT22;26535;48.788;9.214;2023-06-22T07:48:31;26.80;99.90
40816;DHT22;26535;48.788;9.214;2023-06-22T07:50:57;26.80;99.90
40816;DHT22;26535;48.788;9.214;2023-06-22T07:53:23;27.00;99.90
40816;DHT22;26535;48.788;9.214;2023-06-22T07:55:49;27.20;99.90
40816;DHT22;26535;48.788;9.214;2023-06-22T07:58:15;27.20;99.90
40816;DHT22;26535;48.788;9.214;2023-06-22T08:00:41;27.30;99.90
40816;DHT22;26535;48.788;9.214;2023-06-22T08:03:07;27.40;99.90
40816;DHT22;26535;48.788;9.214;2023-06-22T08:05:33;27.50;99.90
40816;DHT22;26535;48.788;9.214;2023-06-22T08:07:59;27.70;99.80
40816;DHT22;26535;48.788;9.214;2023-06-22T08:10:25;27.70;99.50
40816;DHT22;26535;48.788;9.214;2023-06-22T08:12:51;27.90;99.50
40816;DHT22;26535;48.788;9.214;2023-06-22T08:15:18;27.90;99.20
40816;DHT22;26535;48.788;9.214;2023-06-22T08:17:44;28.00;98.70
40816;DHT22;26535;48.788;9.214;2023-06-22T08:20:11;28.10;98.10
40816;DHT22;26535;48.788;9.214;2023-06-22T08:22:38;28.40;98.10
40816;DHT22;26535;48.788;9.214;2023-06-22T08:25:04;28.80;97.20
40816;DHT22;26535;48.788;9.214;2023-06-22T08:27:31;28.90;96.90
40816;DHT22;26535;48.788;9.214;2023-06-22T08:29:58;29.00;96.40
40816;DHT22;26535;48.788;9.214;2023-06-22T08:32:28;29.40;96.10
40816;DHT22;26535;48.788;9.214;2023-06-22T08:34:57;29.40;95.70
40816;DHT22;26535;48.788;9.214;2023-06-22T08:37:23;29.60;95.60
40816;DHT22;26535;48.788;9.214;2023-06-22T08:39:50;29.60;95.30
40816;DHT22;26535;48.788;9.214;2023-06-22T08:42:18;29.50;95.20
40816;DHT22;26535;48.788;9.214;2023-06-22T08:44:48;29.70;95.20
40816;DHT22;26535;48.788;9.214;2023-06-22T08:47:13;29.90;94.80
40816;DHT22;26535;48.788;9.214;2023-06-22T08:49:39;30.10;94.40
40816;DHT22;26535;48.788;9.214;2023-06-22T08:52:05;30.30;94.40
40816;DHT22;26535;48.788;9.214;2023-06-22T08:54:31;30.50;93.30
40816;DHT22;26535;48.788;9.214;2023-06-22T08:56:58;30.10;93.30
40816;DHT22;26535;48.788;9.214;2023-06-22T08:59:24;30.30;93.20
40816;DHT22;26535;48.788;9.214;2023-06-22T09:01:50;30.50;92.90
40816;DHT22;26535;48.788;9.214;2023-06-22T09:04:15;30.90;92.70
40816;DHT22;26535;48.788;9.214;2023-06-22T09:06:41;31.10;92.20
40816;DHT22;26535;48.788;9.214;2023-06-22T09:09:12;31.20;92.00
40816;DHT22;26535;48.788;9.214;2023-06-22T09:11:38;31.20;92.00
40816;DHT22;26535;48.788;9.214;2023-06-22T09:14:04;31.10;91.90
40816;DHT22;26535;48.788;9.214;2023-06-22T09:16:30;31.40;91.70
40816;DHT22;26535;48.788;9.214;2023-06-22T09:18:56;31.20;91.20
40816;DHT22;26535;48.788;9.214;2023-06-22T09:21:22;31.30;91.60
40816;DHT22;26535;48.788;9.214;2023-06-22T09:23:48;31.30;91.20
40816;DHT22;26535;48.788;9.214;2023-06-22T09:26:19;31.60;91.00
40816;DHT22;26535;48.788;9.214;2023-06-22T09:28:45;31.50;90.90
40816;DHT22;26535;48.788;9.214;2023-06-22T09:31:11;31.50;91.00
40816;DHT22;26535;48.788;9.214;2023-06-22T09:33:37;31.40;91.00
40816;DHT22;26535;48.788;9.214;2023-06-22T09:36:06;31.20;90.90
40816;DHT22;26535;48.788;9.214;2023-06-22T09:38:36;31.00;91.10
40816;DHT22;26535;48.788;9.214;2023-06-22T09:41:02;30.90;91.20
40816;DHT22;26535;48.788;9.214;2023-06-22T09:43:27;31.20;91.20
40816;DHT22;26535;48.788;9.214;2023-06-22T09:45:53;31.20;91.30
40816;DHT22;26535;48.788;9.214;2023-06-22T09:48:19;31.20;91.40
40816;DHT22;26535;48.788;9.214;2023-06-22T09:50:45;31.50;91.40
40816;DHT22;26535;48.788;9.214;2023-06-22T09:53:10;31.60;90.90
40816;DHT22;26535;48.788;9.214;2023-06-22T09:55:36;31.50;90.60
40816;DHT22;26535;48.788;9.214;2023-06-22T09:58:02;31.50;90.30
40816;DHT22;26535;48.788;9.214;2023-06-22T10:00:28;31.60;90.50
40816;DHT22;26535;48.788;9.214;2023-06-22T10:02:53;31.90;90.20
40816;DHT22;26535;48.788;9.214;2023-06-22T10:05:21;32.20;89.40
40816;DHT22;26535;48.788;9.214;2023-06-22T10:07:47;32.30;89.80
40816;DHT22;26535;48.788;9.214;2023-06-22T10:10:13;32.80;89.00
40816;DHT22;26535;48.788;9.214;2023-06-22T10:12:47;33.20;88.50
40816;DHT22;26535;48.788;9.214;2023-06-22T10:15:13;33.10;87.50
40816;DHT22;26535;48.788;9.214;2023-06-22T10:17:39;33.10;87.30
40816;DHT22;26535;48.788;9.214;2023-06-22T10:20:06;33.30;86.40
40816;DHT22;26535;48.788;9.214;2023-06-22T10:22:40;33.20;86.20
40816;DHT22;26535;48.788;9.214;2023-06-22T10:25:07;33.60;86.40
40816;DHT22;26535;48.788;9.214;2023-06-22T10:27:33;33.50;85.00
40816;DHT22;26535;48.788;9.214;2023-06-22T10:29:58;33.30;85.00
40816;DHT22;26535;48.788;9.214;2023-06-22T10:32:24;33.50;85.60
40816;DHT22;26535;48.788;9.214;2023-06-22T10:34:50;33.50;84.90
40816;DHT22;26535;48.788;9.214;2023-06-22T10:37:16;33.60;84.70
40816;DHT22;26535;48.788;9.214;2023-06-22T10:39:41;33.70;84.50
40816;DHT22;26535;48.788;9.214;2023-06-22T10:42:07;34.00;83.90
40816;DHT22;26535;48.788;9.214;2023-06-22T10:44:33;34.40;83.00
40816;DHT22;26535;48.788;9.214;2023-06-22T10:46:58;34.30;83.20
40816;DHT22;26535;48.788;9.214;2023-06-22T10:49:24;34.60;82.70
40816;DHT22;26535;48.788;9.214;2023-06-22T10:51:50;34.70;81.80
40816;DHT22;26535;48.788;9.214;2023-06-22T10:54:15;35.00;82.10
40816;DHT22;26535;48.788;9.214;2023-06-22T10:56:43;34.80;81.80
40816;DHT22;26535;48.788;9.214;2023-06-22T10:59:09;34.60;81.90
40816;DHT22;26535;48.788;9.214;2023-06-22T11:01:35;34.50;81.10
40816;DHT22;26535;48.788;9.214;2023-06-22T11:04:03;34.10;81.60
40816;DHT22;26535;48.788;9.214;2023-06-22T11:06:29;34.20;81.80
40816;DHT22;26535;48.788;9.214;2023-06-22T11:08:54;34.50;81.30
40816;DHT22;26535;48.788;9.214;2023-06-22T11:11:20;34.50;82.00
40816;DHT22;26535;48.788;9.214;2023-06-22T11:13:46;34.40;81.30
40816;DHT22;26535;48.788;9.214;2023-06-22T11:16:11;34.50;81.40
40816;DHT22;26535;48.788;9.214;2023-06-22T11:18:37;34.10;81.50
40816;DHT22;26535;48.788;9.214;2023-06-22T11:21:03;34.10;81.50
40816;DHT22;26535;48.788;9.214;2023-06-22T11:23:28;34.30;82.10
40816;DHT22;26535;48.788;9.214;2023-06-22T11:25:55;33.90;82.00
40816;DHT22;26535;48.788;9.214;2023-06-22T11:28:20;33.90;82.20
40816;DHT22;26535;48.788;9.214;2023-06-22T11:30:46;34.00;82.50
40816;DHT22;26535;48.788;9.214;2023-06-22T11:33:12;34.10;82.30
40816;DHT22;26535;48.788;9.214;2023-06-22T11:35:37;34.10;81.50
40816;DHT22;26535;48.788;9.214;2023-06-22T11:38:03;34.30;81.70
40816;DHT22;26535;48.788;9.214;2023-06-22T11:40:30;34.30;81.70
40816;DHT22;26535;48.788;9.214;2023-06-22T11:42:56;34.60;81.70
40816;DHT22;26535;48.788;9.214;2023-06-22T11:45:22;35.00;80.50
40816;DHT22;26535;48.788;9.214;2023-06-22T11:47:48;35.60;79.30
40816;DHT22;26535;48.788;9.214;2023-06-22T11:50:14;35.60;77.80
40816;DHT22;26535;48.788;9.214;2023-06-22T11:52:40;36.10;77.60
40816;DHT22;26535;48.788;9.214;2023-06-22T11:55:06;36.40;76.80
40816;DHT22;26535;48.788;9.214;2023-06-22T11:57:39;36.60;76.30
40816;DHT22;26535;48.788;9.214;2023-06-22T12:00:17;36.50;75.90
40816;DHT22;26535;48.788;9.214;2023-06-22T12:02:44;36.60;75.20
40816;DHT22;26535;48.788;9.214;2023-06-22T12:05:10;36.30;75.40
40816;DHT22;26535;48.788;9.214;2023-06-22T12:07:36;35.90;76.00
40816;DHT22;26535;48.788;9.214;2023-06-22T12:10:03;35.80;75.40
40816;DHT22;26535;48.788;9.214;2023-06-22T12:12:29;35.70;75.60
40816;DHT22;26535;48.788;9.214;2023-06-22T12:14:55;35.30;76.20
40816;DHT22;26535;48.788;9.214;2023-06-22T12:17:20;34.90;75.70
40816;DHT22;26535;48.788;9.214;2023-06-22T12:19:46;34.30;75.90
40816;DHT22;26535;48.788;9.214;2023-06-22T12:22:12;34.00;77.10
40816;DHT22;26535;48.788;9.214;2023-06-22T12:24:38;34.20;77.60
40816;DHT22;26535;48.788;9.214;2023-06-22T12:27:12;34.50;77.10
40816;DHT22;26535;48.788;9.214;2023-06-22T12:29:38;34.70;77.60
40816;DHT22;26535;48.788;9.214;2023-06-22T12:32:04;34.90;77.10
40816;DHT22;26535;48.788;9.214;2023-06-22T12:34:30;34.90;76.50
40816;DHT22;26535;48.788;9.214;2023-06-22T12:36:56;35.00;76.80
40816;DHT22;26535;48.788;9.214;2023-06-22T12:39:21;34.80;76.30
40816;DHT22;26535;48.788;9.214;2023-06-22T12:41:47;34.50;76.00
40816;DHT22;26535;48.788;9.214;2023-06-22T12:44:13;34.30;76.10
40816;DHT22;26535;48.788;9.214;2023-06-22T12:46:38;34.10;77.60
40816;DHT22;26535;48.788;9.214;2023-06-22T12:49:04;33.90;78.10
40816;DHT22;26535;48.788;9.214;2023-06-22T12:51:30;33.80;78.40
40816;DHT22;26535;48.788;9.214;2023-06-22T12:53:56;34.00;79.00
40816;DHT22;26535;48.788;9.214;2023-06-22T12:56:22;33.90;79.60
40816;DHT22;26535;48.788;9.214;2023-06-22T12:58:48;34.00;80.00
40816;DHT22;26535;48.788;9.214;2023-06-22T13:01:14;33.90;80.50
40816;DHT22;26535;48.788;9.214;2023-06-22T13:03:41;33.80;81.00
40816;DHT22;26535;48.788;9.214;2023-06-22T13:06:07;33.50;81.10
40816;DHT22;26535;48.788;9.214;2023-06-22T13:08:32;33.40;82.00
40816;DHT22;26535;48.788;9.214;2023-06-22T13:10:58;33.50;81.60
40816;DHT22;26535;48.788;9.214;2023-06-22T13:13:25;33.40;81.10
40816;DHT22;26535;48.788;9.214;2023-06-22T13:15:52;33.50;81.90
40816;DHT22;26535;48.788;9.214;2023-06-22T13:18:19;33.50;81.70
40816;DHT22;26535;48.788;9.214;2023-06-22T13:20:45;33.50;81.30
40816;DHT22;26535;48.788;9.214;2023-06-22T13:23:11;33.70;80.20
40816;DHT22;26535;48.788;9.214;2023-06-22T13:25:37;33.80;80.50
40816;DHT22;26535;48.788;9.214;2023-06-22T13:28:03;34.50;79.70
40816;DHT22;26535;48.788;9.214;2023-06-22T13:30:29;35.00;78.60
40816;DHT22;26535;48.788;9.214;2023-06-22T13:32:56;35.10;78.50
40816;DHT22;26535;48.788;9.214;2023-06-22T13:35:21;35.20;78.40
40816;DHT22;26535;48.788;9.214;2023-06-22T13:37:47;35.40;78.00
40816;DHT22;26535;48.788;9.214;2023-06-22T13:40:13;35.30;77.90
40816;DHT22;26535;48.788;9.214;2023-06-22T13:42:38;35.50;77.50
40816;DHT22;26535;48.788;9.214;2023-06-22T13:45:05;35.70;76.80
40816;DHT22;26535;48.788;9.214;2023-06-22T13:47:31;35.70;76.80
40816;DHT22;26535;48.788;9.214;2023-06-22T13:49:58;35.60;77.40
40816;DHT22;26535;48.788;9.214;2023-06-22T13:52:23;35.50;77.40
40816;DHT22;26535;48.788;9.214;2023-06-22T13:54:49;35.50;77.60
40816;DHT22;26535;48.788;9.214;2023-06-22T13:57:15;35.50;76.20
40816;DHT22;26535;48.788;9.214;2023-06-22T13:59:41;35.60;75.80
40816;DHT22;26535;48.788;9.214;2023-06-22T14:02:06;35.70;76.00
40816;DHT22;26535;48.788;9.214;2023-06-22T14:04:32;35.50;75.20
40816;DHT22;26535;48.788;9.214;2023-06-22T14:06:58;35.50;73.90
40816;DHT22;26535;48.788;9.214;2023-06-22T14:09:24;35.80;74.40
40816;DHT22;26535;48.788;9.214;2023-06-22T14:11:50;36.50;73.30
40816;DHT22;26535;48.788;9.214;2023-06-22T14:14:16;37.00;73.00
40816;DHT22;26535;48.788;9.214;2023-06-22T14:16:42;37.10;70.70
40816;DHT22;26535;48.788;9.214;2023-06-22T14:19:07;38.60;67.80
40816;DHT22;26535;48.788;9.214;2023-06-22T14:21:33;39.40;67.10
40816;DHT22;26535;48.788;9.214;2023-06-22T14:23:59;40.20;58.80
40816;DHT22;26535;48.788;9.214;2023-06-22T14:26:24;40.80;56.60
40816;DHT22;26535;48.788;9.214;2023-06-22T14:28:50;41.30;56.50
40816;DHT22;26535;48.788;9.214;2023-06-22T14:31:17;40.60;56.20
40816;DHT22;26535;48.788;9.214;2023-06-22T14:33:47;40.00;56.70
40816;DHT22;26535;48.788;9.214;2023-06-22T14:36:14;39.40;57.60
40816;DHT22;26535;48.788;9.214;2023-06-22T14:38:40;38.20;57.90
40816;DHT22;26535;48.788;9.214;2023-06-22T14:41:05;38.20;57.50
40816;DHT22;26535;48.788;9.214;2023-06-22T14:43:31;38.60;57.20
40816;DHT22;26535;48.788;9.214;2023-06-22T14:45:57;39.50;55.10
40816;DHT22;26535;48.788;9.214;2023-06-22T14:48:22;40.30;54.30
40816;DHT22;26535;48.788;9.214;2023-06-22T14:50:48;42.00;53.10
40816;DHT22;26535;48.788;9.214;2023-06-22T14:53:14;42.90;52.30
40816;DHT22;26535;48.788;9.214;2023-06-22T14:55:40;42.50;52.00
40816;DHT22;26535;48.788;9.214;2023-06-22T14:58:06;43.40;51.30
40816;DHT22;26535;48.788;9.214;2023-06-22T15:00:32;43.30;50.90
40816;DHT22;26535;48.788;9.214;2023-06-22T15:02:58;41.80;50.90
40816;DHT22;26535;48.788;9.214;2023-06-22T15:05:25;41.30;51.00
40816;DHT22;26535;48.788;9.214;2023-06-22T15:07:51;41.30;51.80
40816;DHT22;26535;48.788;9.214;2023-06-22T15:10:16;40.40;52.10
40816;DHT22;26535;48.788;9.214;2023-06-22T15:12:42;39.50;49.50
40816;DHT22;26535;48.788;9.214;2023-06-22T15:15:08;38.30;50.50
40816;DHT22;26535;48.788;9.214;2023-06-22T15:17:34;37.80;50.80
40816;DHT22;26535;48.788;9.214;2023-06-22T15:20:00;37.30;51.30
40816;DHT22;26535;48.788;9.214;2023-06-22T15:22:26;37.30;50.90
40816;DHT22;26535;48.788;9.214;2023-06-22T15:24:51;37.90;50.90
40816;DHT22;26535;48.788;9.214;2023-06-22T15:27:19;39.40;49.50
40816;DHT22;26535;48.788;9.214;2023-06-22T15:29:45;40.60;48.30
40816;DHT22;26535;48.788;9.214;2023-06-22T15:32:11;40.50;47.90
40816;DHT22;26535;48.788;9.214;2023-06-22T15:34:38;39.40;48.40
40816;DHT22;26535;48.788;9.214;2023-06-22T15:37:04;38.70;48.90
40816;DHT22;26535;48.788;9.214;2023-06-22T15:39:29;38.50;49.40
40816;DHT22;26535;48.788;9.214;2023-06-22T15:41:56;38.90;49.50
40816;DHT22;26535;48.788;9.214;2023-06-22T15:44:23;38.90;49.00
40816;DHT22;26535;48.788;9.214;2023-06-22T15:46:48;38.40;48.80
40816;DHT22;26535;48.788;9.214;2023-06-22T15:49:15;38.50;48.60
40816;DHT22;26535;48.788;9.214;2023-06-22T15:51:41;37.90;48.70
40816;DHT22;26535;48.788;9.214;2023-06-22T15:54:06;37.80;49.10
40816;DHT22;26535;48.788;9.214;2023-06-22T15:56:32;37.00;49.70
40816;DHT22;26535;48.788;9.214;2023-06-22T15:58:58;36.80;50.30
40816;DHT22;26535;48.788;9.214;2023-06-22T16:01:24;35.90;51.10
40816;DHT22;26535;48.788;9.214;2023-06-22T16:03:50;35.50;51.80
40816;DHT22;26535;48.788;9.214;2023-06-22T16:06:16;34.90;52.80
40816;DHT22;26535;48.788;9.214;2023-06-22T16:08:41;34.40;53.70
40816;DHT22;26535;48.788;9.214;2023-06-22T16:11:07;34.20;54.20
40816;DHT22;26535;48.788;9.214;2023-06-22T16:13:33;34.00;54.70
40816;DHT22;26535;48.788;9.214;2023-06-22T16:15:59;34.00;54.90
40816;DHT22;26535;48.788;9.214;2023-06-22T16:18:24;34.00;54.70
40816;DHT22;26535;48.788;9.214;2023-06-22T16:20:50;33.80;54.90
40816;DHT22;26535;48.788;9.214;2023-06-22T16:23:16;33.50;55.50
40816;DHT22;26535;48.788;9.214;2023-06-22T16:25:45;33.60;55.80
40816;DHT22;26535;48.788;9.214;2023-06-22T16:28:10;33.50;56.10
40816;DHT22;26535;48.788;9.214;2023-06-22T16:30:36;33.20;56.10
40816;DHT22;26535;48.788;9.214;2023-06-22T16:33:02;33.00;56.70
40816;DHT22;26535;48.788;9.214;2023-06-22T16:35:28;32.90;57.30
40816;DHT22;26535;48.788;9.214;2023-06-22T16:37:55;32.90;57.30
40816;DHT22;26535;48.788;9.214;2023-06-22T16:40:21;32.80;57.50
40816;DHT22;26535;48.788;9.214;2023-06-22T16:42:47;32.80;56.80
40816;DHT22;26535;48.788;9.214;2023-06-22T16:45:16;32.60;56.90
40816;DHT22;26535;48.788;9.214;2023-06-22T16:47:44;32.60;57.00
40816;DHT22;26535;48.788;9.214;2023-06-22T16:50:10;32.70;57.00
40816;DHT22;26535;48.788;9.214;2023-06-22T16:52:36;32.60;57.10
40816;DHT22;26535;48.788;9.214;2023-06-22T16:55:05;32.60;57.00
40816;DHT22;26535;48.788;9.214;2023-06-22T16:57:31;32.50;57.80
40816;DHT22;26535;48.788;9.214;2023-06-22T16:59:57;32.20;57.30
40816;DHT22;26535;48.788;9.214;2023-06-22T17:02:23;32.30;57.50
40816;DHT22;26535;48.788;9.214;2023-06-22T17:04:53;32.20;57.70
40816;DHT22;26535;48.788;9.214;2023-06-22T17:07:22;32.20;57.80
40816;DHT22;26535;48.788;9.214;2023-06-22T17:09:49;32.50;57.60
40816;DHT22;26535;48.788;9.214;2023-06-22T17:12:15;33.30;57.00
40816;DHT22;26535;48.788;9.214;2023-06-22T17:14:44;33.20;56.90
40816;DHT22;26535;48.788;9.214;2023-06-22T17:17:15;33.10;57.20
40816;DHT22;26535;48.788;9.214;2023-06-22T17:19:47;32.60;58.10
40816;DHT22;26535;48.788;9.214;2023-06-22T17:22:13;32.20;58.90
40816;DHT22;26535;48.788;9.214;2023-06-22T17:24:40;31.90;59.60
40816;DHT22;26535;48.788;9.214;2023-06-22T17:27:06;31.90;60.10
40816;DHT22;26535;48.788;9.214;2023-06-22T17:29:32;32.30;59.80
40816;DHT22;26535;48.788;9.214;2023-06-22T17:32:02;32.80;59.00
40816;DHT22;26535;48.788;9.214;2023-06-22T17:34:29;32.50;59.10
40816;DHT22;26535;48.788;9.214;2023-06-22T17:36:55;32.00;59.10
40816;DHT22;26535;48.788;9.214;2023-06-22T17:39:23;31.60;59.30
40816;DHT22;26535;48.788;9.214;2023-06-22T17:41:50;31.10;59.10
40816;DHT22;26535;48.788;9.214;2023-06-22T17:46:44;30.30;59.90
40816;DHT22;26535;48.788;9.214;2023-06-22T17:49:11;29.90;60.30
40816;DHT22;26535;48.788;9.214;2023-06-22T17:51:42;29.70;60.90
40816;DHT22;26535;48.788;9.214;2023-06-22T17:54:08;29.50;61.40
40816;DHT22;26535;48.788;9.214;2023-06-22T17:56:34;29.40;62.00
40816;DHT22;26535;48.788;9.214;2023-06-22T17:59:01;29.30;62.90
40816;DHT22;26535;48.788;9.214;2023-06-22T18:01:39;29.20;62.60
40816;DHT22;26535;48.788;9.214;2023-06-22T18:04:16;29.10;63.00
40816;DHT22;26535;48.788;9.214;2023-06-22T18:06:45;29.00;64.00
40816;DHT22;26535;48.788;9.214;2023-06-22T18:09:13;28.80;64.70
40816;DHT22;26535;48.788;9.214;2023-06-22T18:11:47;28.60;64.90
40816;DHT22;26535;48.788;9.214;2023-06-22T18:14:15;28.50;64.70
40816;DHT22;26535;48.788;9.214;2023-06-22T18:16:44;28.30;65.10
40816;DHT22;26535;48.788;9.214;2023-06-22T18:19:13;28.20;65.40
40816;DHT22;26535;48.788;9.214;2023-06-22T18:21:39;28.10;65.60
40816;DHT22;26535;48.788;9.214;2023-06-22T18:24:06;28.10;66.20
40816;DHT22;26535;48.788;9.214;2023-06-22T18:26:32;28.00;65.90
40816;DHT22;26535;48.788;9.214;2023-06-22T18:28:58;27.90;66.30
40816;DHT22;26535;48.788;9.214;2023-06-22T18:31:25;27.70;66.80
40816;DHT22;26535;48.788;9.214;2023-06-22T18:33:56;27.60;67.10
40816;DHT22;26535;48.788;9.214;2023-06-22T18:38:52;27.10;68.40
40816;DHT22;26535;48.788;9.214;2023-06-22T18:41:36;27.10;69.30
40816;DHT22;26535;48.788;9.214;2023-06-22T18:44:04;26.90;69.60
40816;DHT22;26535;48.788;9.214;2023-06-22T18:46:37;26.80;70.00
40816;DHT22;26535;48.788;9.214;2023-06-22T18:49:12;26.80;70.50
40816;DHT22;26535;48.788;9.214;2023-06-22T18:51:54;26.60;70.80
40816;DHT22;26535;48.788;9.214;2023-06-22T18:54:32;26.50;71.50
40816;DHT22;26535;48.788;9.214;2023-06-22T18:56:58;26.30;72.10
40816;DHT22;26535;48.788;9.214;2023-06-22T18:59:57;26.20;72.90
40816;DHT22;26535;48.788;9.214;2023-06-22T19:05:14;26.10;72.60
40816;DHT22;26535;48.788;9.214;2023-06-22T19:15:53;26.10;72.30
40816;DHT22;26535;48.788;9.214;2023-06-22T19:18:31;26.00;72.40
40816;DHT22;26535;48.788;9.214;2023-06-22T19:21:02;26.00;72.90
40816;DHT22;26535;48.788;9.214;2023-06-22T19:23:31;26.00;74.70
40816;DHT22;26535;48.788;9.214;2023-06-22T19:26:00;25.70;76.40
40816;DHT22;26535;48.788;9.214;2023-06-22T19:28:31;25.50;76.50
40816;DHT22;26535;48.788;9.214;2023-06-22T19:30:58;25.40;76.50
40816;DHT22;26535;48.788;9.214;2023-06-22T19:33:25;25.30;76.60
40816;DHT22;26535;48.788;9.214;2023-06-22T19:35:59;25.30;76.80
40816;DHT22;26535;48.788;9.214;2023-06-22T19:38:26;25.30;77.50
40816;DHT22;26535;48.788;9.214;2023-06-22T19:40:52;25.10;77.30
40816;DHT22;26535;48.788;9.214;2023-06-22T19:43:19;25.10;77.80
40816;DHT22;26535;48.788;9.214;2023-06-22T19:45:45;25.00;78.70
40816;DHT22;26535;48.788;9.214;2023-06-22T19:48:15;24.90;79.40
40816;DHT22;26535;48.788;9.214;2023-06-22T19:50:41;24.80;80.10
40816;DHT22;26535;48.788;9.214;2023-06-22T19:53:14;24.70;80.90
40816;DHT22;26535;48.788;9.214;2023-06-22T19:55:41;24.60;81.50
40816;DHT22;26535;48.788;9.214;2023-06-22T19:58:09;24.50;82.30
40816;DHT22;26535;48.788;9.214;2023-06-22T20:00:35;24.40;82.60
40816;DHT22;26535;48.788;9.214;2023-06-22T20:03:01;24.30;83.10
40816;DHT22;26535;48.788;9.214;2023-06-22T20:05:27;24.20;83.70
40816;DHT22;26535;48.788;9.214;2023-06-22T20:07:53;24.20;84.10
40816;DHT22;26535;48.788;9.214;2023-06-22T20:10:20;24.20;84.40
40816;DHT22;26535;48.788;9.214;2023-06-22T20:12:50;24.10;84.70
40816;DHT22;26535;48.788;9.214;2023-06-22T20:15:27;24.10;85.00
40816;DHT22;26535;48.788;9.214;2023-06-22T20:18:02;24.10;85.40
40816;DHT22;26535;48.788;9.214;2023-06-22T20:20:30;24.10;85.50
40816;DHT22;26535;48.788;9.214;2023-06-22T20:22:59;24.00;86.10
40816;DHT22;26535;48.788;9.214;2023-06-22T20:25:25;24.00;86.50
40816;DHT22;26535;48.788;9.214;2023-06-22T20:27:52;24.00;87.00
40816;DHT22;26535;48.788;9.214;2023-06-22T20:30:25;23.90;87.40
40816;DHT22;26535;48.788;9.214;2023-06-22T20:32:53;23.90;88.00
40816;DHT22;26535;48.788;9.214;2023-06-22T20:35:20;23.90;88.30
40816;DHT22;26535;48.788;9.214;2023-06-22T20:37:47;23.90;88.50
40816;DHT22;26535;48.788;9.214;2023-06-22T20:40:13;23.80;89.00
40816;DHT22;26535;48.788;9.214;2023-06-22T20:42:39;23.80;89.40
40816;DHT22;26535;48.788;9.214;2023-06-22T20:45:06;23.80;89.60